sensor_id;sensor_type;location;lat;lon;timestamp;P1;durP1;ratioP1;P2;durP2;ratioP2
78610;SDS011;67932;50.474;4.436;2023-07-20T00:02:03;3.53;;;1.58;;
78610;SDS011;67932;50.474;4.436;2023-07-20T00:04:30;3.45;;;1.30;;
78610;SDS011;67932;50.474;4.436;2023-07-20T00:06:57;6.55;;;1.98;;
78610;SDS011;67932;50.474;4.436;2023-07-20T00:09:26;4.03;;;1.73;;
78610;SDS011;67932;50.474;4.436;2023-07-20T00:11:53;4.32;;;1.52;;
78610;SDS011;67932;50.474;4.436;2023-07-20T00:14:19;5.80;;;2.00;;
78610;SDS011;67932;50.474;4.436;2023-07-20T00:16:46;6.32;;;1.60;;
78610;SDS011;67932;50.474;4.436;2023-07-20T00:19:20;4.32;;;1.40;;
78610;SDS011;67932;50.474;4.436;2023-07-20T00:21:48;3.85;;;1.77;;
78610;SDS011;67932;50.474;4.436;2023-07-20T00:24:14;4.22;;;1.73;;
78610;SDS011;67932;50.474;4.436;2023-07-20T00:26:40;5.55;;;1.58;;
78610;SDS011;67932;50.474;4.436;2023-07-20T00:29:07;4.82;;;1.75;;
78610;SDS011;67932;50.474;4.436;2023-07-20T00:31:33;4.55;;;1.50;;
78610;SDS011;67932;50.474;4.436;2023-07-20T00:34:02;5.10;;;1.60;;
78610;SDS011;67932;50.474;4.436;2023-07-20T00:36:29;4.68;;;1.75;;
78610;SDS011;67932;50.474;4.436;2023-07-20T00:38:55;7.07;;;2.05;;
78610;SDS011;67932;50.474;4.436;2023-07-20T00:41:21;4.55;;;1.80;;
78610;SDS011;67932;50.474;4.436;2023-07-20T00:43:47;4.00;;;1.75;;
78610;SDS011;67932;50.474;4.436;2023-07-20T00:46:15;6.57;;;1.73;;
78610;SDS011;67932;50.474;4.436;2023-07-20T00:48:42;5.93;;;2.15;;
78610;SDS011;67932;50.474;4.436;2023-07-20T00:51:08;5.70;;;2.08;;
78610;SDS011;67932;50.474;4.436;2023-07-20T00:53:35;6.70;;;2.10;;
78610;SDS011;67932;50.474;4.436;2023-07-20T00:56:01;7.13;;;2.47;;
78610;SDS011;67932;50.474;4.436;2023-07-20T00:58:28;6.05;;;1.70;;
78610;SDS011;67932;50.474;4.436;2023-07-20T01:00:55;5.45;;;1.92;;
78610;SDS011;67932;50.474;4.436;2023-07-20T01:03:21;3.05;;;1.67;;
78610;SDS011;67932;50.474;4.436;2023-07-20T01:08:42;7.20;;;2.72;;
78610;SDS011;67932;50.474;4.436;2023-07-20T01:11:10;6.90;;;2.20;;
78610;SDS011;67932;50.474;4.436;2023-07-20T01:13:42;11.23;;;2.20;;
78610;SDS011;67932;50.474;4.436;2023-07-20T01:16:09;6.88;;;2.63;;
78610;SDS011;67932;50.474;4.436;2023-07-20T01:18:35;4.72;;;1.98;;
78610;SDS011;67932;50.474;4.436;2023-07-20T01:21:03;5.25;;;2.35;;
78610;SDS011;67932;50.474;4.436;2023-07-20T01:26:27;4.28;;;2.30;;
78610;SDS011;67932;50.474;4.436;2023-07-20T01:29:22;5.75;;;2.40;;
78610;SDS011;67932;50.474;4.436;2023-07-20T01:31:58;7.68;;;2.38;;
78610;SDS011;67932;50.474;4.436;2023-07-20T01:34:28;8.98;;;2.80;;
78610;SDS011;67932;50.474;4.436;2023-07-20T01:36:56;5.85;;;2.38;;
78610;SDS011;67932;50.474;4.436;2023-07-20T01:39:22;8.02;;;2.30;;
78610;SDS011;67932;50.474;4.436;2023-07-20T01:41:49;6.63;;;2.20;;
78610;SDS011;67932;50.474;4.436;2023-07-20T01:44:15;5.43;;;2.55;;
78610;SDS011;67932;50.474;4.436;2023-07-20T01:46:42;6.85;;;2.05;;
78610;SDS011;67932;50.474;4.436;2023-07-20T01:49:08;7.15;;;2.50;;
78610;SDS011;67932;50.474;4.436;2023-07-20T01:51:34;6.35;;;2.30;;
78610;SDS011;67932;50.474;4.436;2023-07-20T01:54:00;7.75;;;2.25;;
78610;SDS011;67932;50.474;4.436;2023-07-20T01:56:27;6.32;;;2.60;;
78610;SDS011;67932;50.474;4.436;2023-07-20T01:58:53;11.38;;;3.03;;
78610;SDS011;67932;50.474;4.436;2023-07-20T02:01:19;10.63;;;2.65;;
78610;SDS011;67932;50.474;4.436;2023-07-20T02:03:46;6.80;;;2.60;;
78610;SDS011;67932;50.474;4.436;2023-07-20T02:06:12;8.10;;;2.83;;
78610;SDS011;67932;50.474;4.436;2023-07-20T02:08:38;11.77;;;3.78;;
78610;SDS011;67932;50.474;4.436;2023-07-20T02:11:04;8.63;;;3.03;;
78610;SDS011;67932;50.474;4.436;2023-07-20T02:13:30;9.40;;;2.65;;
78610;SDS011;67932;50.474;4.436;2023-07-20T02:15:57;7.05;;;2.65;;
78610;SDS011;67932;50.474;4.436;2023-07-20T02:18:23;9.07;;;2.97;;
78610;SDS011;67932;50.474;4.436;2023-07-20T02:20:49;6.45;;;3.00;;
78610;SDS011;67932;50.474;4.436;2023-07-20T02:23:17;6.80;;;2.95;;
78610;SDS011;67932;50.474;4.436;2023-07-20T02:25:43;8.77;;;3.05;;
78610;SDS011;67932;50.474;4.436;2023-07-20T02:28:10;8.18;;;3.42;;
78610;SDS011;67932;50.474;4.436;2023-07-20T02:30:38;10.75;;;3.10;;
78610;SDS011;67932;50.474;4.436;2023-07-20T02:33:04;10.65;;;3.35;;
78610;SDS011;67932;50.474;4.436;2023-07-20T02:35:32;10.48;;;3.47;;
78610;SDS011;67932;50.474;4.436;2023-07-20T02:37:58;7.28;;;3.17;;
78610;SDS011;67932;50.474;4.436;2023-07-20T02:40:24;11.13;;;3.20;;
78610;SDS011;67932;50.474;4.436;2023-07-20T02:42:51;8.35;;;3.20;;
78610;SDS011;67932;50.474;4.436;2023-07-20T02:45:17;10.93;;;3.60;;
78610;SDS011;67932;50.474;4.436;2023-07-20T02:47:44;11.63;;;3.30;;
78610;SDS011;67932;50.474;4.436;2023-07-20T02:50:10;10.02;;;3.17;;
78610;SDS011;67932;50.474;4.436;2023-07-20T02:52:38;8.32;;;3.15;;
78610;SDS011;67932;50.474;4.436;2023-07-20T02:55:05;9.65;;;3.13;;
78610;SDS011;67932;50.474;4.436;2023-07-20T02:57:31;6.40;;;3.50;;
78610;SDS011;67932;50.474;4.436;2023-07-20T02:59:57;6.90;;;3.42;;
78610;SDS011;67932;50.474;4.436;2023-07-20T03:02:24;10.68;;;3.58;;
78610;SDS011;67932;50.474;4.436;2023-07-20T03:04:50;11.63;;;3.63;;
78610;SDS011;67932;50.474;4.436;2023-07-20T03:07:16;10.00;;;3.45;;
78610;SDS011;67932;50.474;4.436;2023-07-20T03:09:42;8.95;;;3.53;;
78610;SDS011;67932;50.474;4.436;2023-07-20T03:12:09;7.10;;;3.42;;
78610;SDS011;67932;50.474;4.436;2023-07-20T03:14:35;12.25;;;3.55;;
78610;SDS011;67932;50.474;4.436;2023-07-20T03:17:01;11.93;;;4.03;;
78610;SDS011;67932;50.474;4.436;2023-07-20T03:19:28;10.48;;;4.03;;
78610;SDS011;67932;50.474;4.436;2023-07-20T03:21:54;9.20;;;3.92;;
78610;SDS011;67932;50.474;4.436;2023-07-20T03:24:20;10.32;;;4.40;;
78610;SDS011;67932;50.474;4.436;2023-07-20T03:26:47;14.00;;;4.50;;
78610;SDS011;67932;50.474;4.436;2023-07-20T03:29:13;13.65;;;4.05;;
78610;SDS011;67932;50.474;4.436;2023-07-20T03:31:41;8.88;;;4.15;;
78610;SDS011;67932;50.474;4.436;2023-07-20T03:34:07;10.82;;;3.67;;
78610;SDS011;67932;50.474;4.436;2023-07-20T03:36:33;14.25;;;4.40;;
78610;SDS011;67932;50.474;4.436;2023-07-20T03:39:00;10.57;;;4.55;;
78610;SDS011;67932;50.474;4.436;2023-07-20T03:41:27;12.38;;;3.70;;
78610;SDS011;67932;50.474;4.436;2023-07-20T03:43:53;8.40;;;4.10;;
78610;SDS011;67932;50.474;4.436;2023-07-20T03:46:20;7.68;;;3.65;;
78610;SDS011;67932;50.474;4.436;2023-07-20T03:48:46;12.57;;;4.03;;
78610;SDS011;67932;50.474;4.436;2023-07-20T03:51:12;11.00;;;4.05;;
78610;SDS011;67932;50.474;4.436;2023-07-20T03:53:39;9.88;;;5.32;;
78610;SDS011;67932;50.474;4.436;2023-07-20T03:56:05;15.13;;;4.22;;
78610;SDS011;67932;50.474;4.436;2023-07-20T03:58:31;12.35;;;4.30;;
78610;SDS011;67932;50.474;4.436;2023-07-20T04:00:58;10.65;;;4.40;;
78610;SDS011;67932;50.474;4.436;2023-07-20T04:03:24;10.48;;;4.10;;
78610;SDS011;67932;50.474;4.436;2023-07-20T04:05:52;13.68;;;5.22;;
78610;SDS011;67932;50.474;4.436;2023-07-20T04:08:20;12.55;;;4.82;;
78610;SDS011;67932;50.474;4.436;2023-07-20T04:10:50;15.00;;;5.25;;
78610;SDS011;67932;50.474;4.436;2023-07-20T04:13:16;12.23;;;5.18;;
78610;SDS011;67932;50.474;4.436;2023-07-20T04:15:42;12.85;;;5.60;;
78610;SDS011;67932;50.474;4.436;2023-07-20T04:18:09;9.20;;;4.50;;
78610;SDS011;67932;50.474;4.436;2023-07-20T04:20:35;13.93;;;6.05;;
78610;SDS011;67932;50.474;4.436;2023-07-20T04:23:01;12.57;;;4.63;;
78610;SDS011;67932;50.474;4.436;2023-07-20T04:25:29;19.20;;;5.90;;
78610;SDS011;67932;50.474;4.436;2023-07-20T04:28:03;11.23;;;5.80;;
78610;SDS011;67932;50.474;4.436;2023-07-20T04:30:33;17.88;;;5.20;;
78610;SDS011;67932;50.474;4.436;2023-07-20T04:33:01;16.88;;;5.82;;
78610;SDS011;67932;50.474;4.436;2023-07-20T04:38:12;11.52;;;5.45;;
78610;SDS011;67932;50.474;4.436;2023-07-20T04:40:40;12.50;;;5.72;;
78610;SDS011;67932;50.474;4.436;2023-07-20T04:43:07;14.93;;;5.45;;
78610;SDS011;67932;50.474;4.436;2023-07-20T04:45:33;13.27;;;6.20;;
78610;SDS011;67932;50.474;4.436;2023-07-20T04:47:59;14.57;;;6.32;;
78610;SDS011;67932;50.474;4.436;2023-07-20T04:50:25;18.48;;;6.18;;
78610;SDS011;67932;50.474;4.436;2023-07-20T04:52:52;12.85;;;5.60;;
78610;SDS011;67932;50.474;4.436;2023-07-20T04:55:18;14.90;;;5.80;;
78610;SDS011;67932;50.474;4.436;2023-07-20T04:57:44;14.63;;;5.47;;
78610;SDS011;67932;50.474;4.436;2023-07-20T05:00:10;22.02;;;7.78;;
78610;SDS011;67932;50.474;4.436;2023-07-20T05:02:38;17.30;;;6.07;;
78610;SDS011;67932;50.474;4.436;2023-07-20T05:05:04;19.75;;;6.55;;
78610;SDS011;67932;50.474;4.436;2023-07-20T05:07:31;12.18;;;6.55;;
78610;SDS011;67932;50.474;4.436;2023-07-20T05:09:57;14.93;;;6.85;;
78610;SDS011;67932;50.474;4.436;2023-07-20T05:12:24;15.05;;;5.90;;
78610;SDS011;67932;50.474;4.436;2023-07-20T05:14:50;15.20;;;7.22;;
78610;SDS011;67932;50.474;4.436;2023-07-20T05:17:17;15.10;;;6.63;;
78610;SDS011;67932;50.474;4.436;2023-07-20T05:19:43;17.08;;;6.82;;
78610;SDS011;67932;50.474;4.436;2023-07-20T05:22:09;17.70;;;7.68;;
78610;SDS011;67932;50.474;4.436;2023-07-20T05:24:37;19.70;;;7.47;;
78610;SDS011;67932;50.474;4.436;2023-07-20T05:27:03;13.15;;;6.30;;
78610;SDS011;67932;50.474;4.436;2023-07-20T05:29:29;16.05;;;6.75;;
78610;SDS011;67932;50.474;4.436;2023-07-20T05:31:56;14.05;;;6.40;;
78610;SDS011;67932;50.474;4.436;2023-07-20T05:34:23;13.48;;;6.55;;
78610;SDS011;67932;50.474;4.436;2023-07-20T05:36:49;20.73;;;7.95;;
78610;SDS011;67932;50.474;4.436;2023-07-20T05:39:18;17.90;;;6.95;;
78610;SDS011;67932;50.474;4.436;2023-07-20T05:41:44;14.63;;;6.90;;
78610;SDS011;67932;50.474;4.436;2023-07-20T05:44:10;13.55;;;5.97;;
78610;SDS011;67932;50.474;4.436;2023-07-20T05:46:37;18.15;;;6.93;;
78610;SDS011;67932;50.474;4.436;2023-07-20T05:49:03;22.02;;;7.68;;
78610;SDS011;67932;50.474;4.436;2023-07-20T05:51:29;15.57;;;6.68;;
78610;SDS011;67932;50.474;4.436;2023-07-20T05:53:56;13.13;;;5.95;;
78610;SDS011;67932;50.474;4.436;2023-07-20T05:56:22;14.75;;;7.03;;
78610;SDS011;67932;50.474;4.436;2023-07-20T05:58:48;18.38;;;7.18;;
78610;SDS011;67932;50.474;4.436;2023-07-20T06:01:15;13.45;;;6.43;;
78610;SDS011;67932;50.474;4.436;2023-07-20T06:03:43;18.42;;;7.65;;
78610;SDS011;67932;50.474;4.436;2023-07-20T06:06:09;15.07;;;7.18;;
78610;SDS011;67932;50.474;4.436;2023-07-20T06:08:37;12.90;;;6.07;;
78610;SDS011;67932;50.474;4.436;2023-07-20T06:11:03;12.70;;;6.38;;
78610;SDS011;67932;50.474;4.436;2023-07-20T06:13:29;11.45;;;6.13;;
78610;SDS011;67932;50.474;4.436;2023-07-20T06:15:56;8.85;;;4.88;;
78610;SDS011;67932;50.474;4.436;2023-07-20T06:18:22;8.63;;;4.75;;
78610;SDS011;67932;50.474;4.436;2023-07-20T06:20:49;11.93;;;5.43;;
78610;SDS011;67932;50.474;4.436;2023-07-20T06:23:17;11.88;;;5.35;;
78610;SDS011;67932;50.474;4.436;2023-07-20T06:25:44;11.88;;;6.10;;
78610;SDS011;67932;50.474;4.436;2023-07-20T06:28:10;17.00;;;7.10;;
78610;SDS011;67932;50.474;4.436;2023-07-20T06:30:36;12.50;;;5.13;;
78610;SDS011;67932;50.474;4.436;2023-07-20T06:33:03;7.97;;;5.03;;
78610;SDS011;67932;50.474;4.436;2023-07-20T06:35:29;10.35;;;4.85;;
78610;SDS011;67932;50.474;4.436;2023-07-20T06:37:55;8.93;;;4.47;;
78610;SDS011;67932;50.474;4.436;2023-07-20T06:40:24;9.32;;;4.40;;
78610;SDS011;67932;50.474;4.436;2023-07-20T06:42:50;6.78;;;4.72;;
78610;SDS011;67932;50.474;4.436;2023-07-20T06:45:16;8.18;;;3.90;;
78610;SDS011;67932;50.474;4.436;2023-07-20T06:47:43;7.75;;;3.90;;
78610;SDS011;67932;50.474;4.436;2023-07-20T06:50:09;9.20;;;4.30;;
78610;SDS011;67932;50.474;4.436;2023-07-20T06:52:36;10.95;;;4.18;;
78610;SDS011;67932;50.474;4.436;2023-07-20T06:55:03;7.78;;;4.15;;
78610;SDS011;67932;50.474;4.436;2023-07-20T06:57:29;8.18;;;4.43;;
78610;SDS011;67932;50.474;4.436;2023-07-20T06:59:55;7.75;;;4.22;;
78610;SDS011;67932;50.474;4.436;2023-07-20T07:02:22;4.93;;;3.40;;
78610;SDS011;67932;50.474;4.436;2023-07-20T07:04:48;8.32;;;4.03;;
78610;SDS011;67932;50.474;4.436;2023-07-20T07:07:14;7.82;;;3.95;;
78610;SDS011;67932;50.474;4.436;2023-07-20T07:09:41;6.60;;;3.92;;
78610;SDS011;67932;50.474;4.436;2023-07-20T07:12:07;6.35;;;3.55;;
78610;SDS011;67932;50.474;4.436;2023-07-20T07:14:34;8.52;;;4.85;;
78610;SDS011;67932;50.474;4.436;2023-07-20T07:17:00;8.50;;;3.28;;
78610;SDS011;67932;50.474;4.436;2023-07-20T07:19:26;9.07;;;3.78;;
78610;SDS011;67932;50.474;4.436;2023-07-20T07:21:52;7.97;;;3.58;;
78610;SDS011;67932;50.474;4.436;2023-07-20T07:24:19;7.15;;;3.47;;
78610;SDS011;67932;50.474;4.436;2023-07-20T07:26:45;5.32;;;3.40;;
78610;SDS011;67932;50.474;4.436;2023-07-20T07:29:11;5.72;;;3.10;;
78610;SDS011;67932;50.474;4.436;2023-07-20T07:31:37;8.85;;;3.35;;
78610;SDS011;67932;50.474;4.436;2023-07-20T07:34:04;4.57;;;2.90;;
78610;SDS011;67932;50.474;4.436;2023-07-20T07:36:30;6.30;;;3.20;;
78610;SDS011;67932;50.474;4.436;2023-07-20T07:38:57;7.28;;;3.35;;
78610;SDS011;67932;50.474;4.436;2023-07-20T07:41:23;3.80;;;3.03;;
78610;SDS011;67932;50.474;4.436;2023-07-20T07:43:49;4.07;;;2.70;;
78610;SDS011;67932;50.474;4.436;2023-07-20T07:46:16;3.50;;;2.78;;
78610;SDS011;67932;50.474;4.436;2023-07-20T07:48:42;5.63;;;3.13;;
78610;SDS011;67932;50.474;4.436;2023-07-20T07:51:08;5.28;;;2.80;;
78610;SDS011;67932;50.474;4.436;2023-07-20T07:53:35;5.15;;;2.75;;
78610;SDS011;67932;50.474;4.436;2023-07-20T07:56:02;4.43;;;3.38;;
78610;SDS011;67932;50.474;4.436;2023-07-20T07:58:31;4.82;;;2.83;;
78610;SDS011;67932;50.474;4.436;2023-07-20T08:00:58;5.22;;;2.70;;
78610;SDS011;67932;50.474;4.436;2023-07-20T08:03:24;4.30;;;2.83;;
78610;SDS011;67932;50.474;4.436;2023-07-20T08:05:53;4.03;;;2.90;;
78610;SDS011;67932;50.474;4.436;2023-07-20T08:08:23;4.97;;;2.65;;
78610;SDS011;67932;50.474;4.436;2023-07-20T08:10:54;4.57;;;2.40;;
78610;SDS011;67932;50.474;4.436;2023-07-20T08:13:20;2.90;;;2.08;;
78610;SDS011;67932;50.474;4.436;2023-07-20T08:15:48;5.05;;;2.63;;
78610;SDS011;67932;50.474;4.436;2023-07-20T08:18:16;2.92;;;2.15;;
78610;SDS011;67932;50.474;4.436;2023-07-20T08:20:46;3.25;;;2.00;;
78610;SDS011;67932;50.474;4.436;2023-07-20T08:23:12;3.50;;;2.08;;
78610;SDS011;67932;50.474;4.436;2023-07-20T08:25:39;5.85;;;2.65;;
78610;SDS011;67932;50.474;4.436;2023-07-20T08:28:09;4.88;;;2.60;;
78610;SDS011;67932;50.474;4.436;2023-07-20T08:30:43;6.05;;;2.72;;
78610;SDS011;67932;50.474;4.436;2023-07-20T08:33:14;4.13;;;2.45;;
78610;SDS011;67932;50.474;4.436;2023-07-20T08:35:43;7.45;;;3.00;;
78610;SDS011;67932;50.474;4.436;2023-07-20T08:38:09;4.20;;;2.53;;
78610;SDS011;67932;50.474;4.436;2023-07-20T08:40:39;4.03;;;2.63;;
78610;SDS011;67932;50.474;4.436;2023-07-20T08:43:07;3.53;;;2.33;;
78610;SDS011;67932;50.474;4.436;2023-07-20T08:45:40;6.47;;;2.40;;
78610;SDS011;67932;50.474;4.436;2023-07-20T08:48:08;3.15;;;1.73;;
78610;SDS011;67932;50.474;4.436;2023-07-20T08:50:34;3.00;;;1.75;;
78610;SDS011;67932;50.474;4.436;2023-07-20T08:53:02;6.18;;;2.13;;
78610;SDS011;67932;50.474;4.436;2023-07-20T08:55:29;5.68;;;1.80;;
78610;SDS011;67932;50.474;4.436;2023-07-20T08:57:57;4.38;;;1.83;;
78610;SDS011;67932;50.474;4.436;2023-07-20T09:00:24;3.13;;;2.35;;
78610;SDS011;67932;50.474;4.436;2023-07-20T09:02:55;3.90;;;2.17;;
78610;SDS011;67932;50.474;4.436;2023-07-20T09:05:23;5.30;;;2.30;;
78610;SDS011;67932;50.474;4.436;2023-07-20T09:07:52;3.78;;;2.38;;
78610;SDS011;67932;50.474;4.436;2023-07-20T09:10:23;4.65;;;2.30;;
78610;SDS011;67932;50.474;4.436;2023-07-20T09:12:49;5.00;;;2.10;;
78610;SDS011;67932;50.474;4.436;2023-07-20T09:15:16;4.05;;;2.15;;
78610;SDS011;67932;50.474;4.436;2023-07-20T09:17:47;4.90;;;2.20;;
78610;SDS011;67932;50.474;4.436;2023-07-20T09:20:16;2.65;;;1.55;;
78610;SDS011;67932;50.474;4.436;2023-07-20T09:22:43;3.85;;;1.90;;
78610;SDS011;67932;50.474;4.436;2023-07-20T09:25:13;3.95;;;1.83;;
78610;SDS011;67932;50.474;4.436;2023-07-20T09:27:45;2.80;;;1.70;;
78610;SDS011;67932;50.474;4.436;2023-07-20T09:30:13;3.33;;;1.60;;
78610;SDS011;67932;50.474;4.436;2023-07-20T09:35:14;4.10;;;1.30;;
78610;SDS011;67932;50.474;4.436;2023-07-20T09:40:26;3.58;;;1.60;;
78610;SDS011;67932;50.474;4.436;2023-07-20T09:42:53;2.75;;;1.50;;
78610;SDS011;67932;50.474;4.436;2023-07-20T09:45:35;3.08;;;1.55;;
78610;SDS011;67932;50.474;4.436;2023-07-20T09:48:06;1.67;;;1.35;;
78610;SDS011;67932;50.474;4.436;2023-07-20T09:50:34;3.08;;;2.05;;
78610;SDS011;67932;50.474;4.436;2023-07-20T09:53:07;3.25;;;1.67;;
78610;SDS011;67932;50.474;4.436;2023-07-20T09:55:43;3.60;;;1.98;;
78610;SDS011;67932;50.474;4.436;2023-07-20T09:58:10;3.28;;;2.03;;
78610;SDS011;67932;50.474;4.436;2023-07-20T10:00:37;3.42;;;1.50;;
78610;SDS011;67932;50.474;4.436;2023-07-20T10:03:05;1.95;;;1.42;;
78610;SDS011;67932;50.474;4.436;2023-07-20T10:05:35;2.30;;;1.30;;
78610;SDS011;67932;50.474;4.436;2023-07-20T10:08:09;2.05;;;1.20;;
78610;SDS011;67932;50.474;4.436;2023-07-20T10:10:38;3.83;;;1.25;;
78610;SDS011;67932;50.474;4.436;2023-07-20T10:13:10;2.97;;;1.60;;
78610;SDS011;67932;50.474;4.436;2023-07-20T10:15:53;5.43;;;1.70;;
78610;SDS011;67932;50.474;4.436;2023-07-20T10:19:07;3.58;;;1.40;;
78610;SDS011;67932;50.474;4.436;2023-07-20T10:21:14;2.58;;;1.67;;
78610;SDS011;67932;50.474;4.436;2023-07-20T10:23:44;3.53;;;1.52;;
78610;SDS011;67932;50.474;4.436;2023-07-20T10:26:11;3.47;;;1.55;;
78610;SDS011;67932;50.474;4.436;2023-07-20T10:28:38;2.75;;;1.50;;
78610;SDS011;67932;50.474;4.436;2023-07-20T10:31:06;3.78;;;1.50;;
78610;SDS011;67932;50.474;4.436;2023-07-20T10:33:34;3.30;;;1.35;;
78610;SDS011;67932;50.474;4.436;2023-07-20T10:36:03;2.33;;;1.30;;
78610;SDS011;67932;50.474;4.436;2023-07-20T10:38:37;3.75;;;1.55;;
78610;SDS011;67932;50.474;4.436;2023-07-20T10:41:22;2.10;;;1.60;;
78610;SDS011;67932;50.474;4.436;2023-07-20T10:43:51;3.00;;;1.33;;
78610;SDS011;67932;50.474;4.436;2023-07-20T10:46:41;2.15;;;1.65;;
78610;SDS011;67932;50.474;4.436;2023-07-20T10:49:10;3.72;;;1.75;;
78610;SDS011;67932;50.474;4.436;2023-07-20T10:51:47;2.35;;;1.50;;
78610;SDS011;67932;50.474;4.436;2023-07-20T10:56:50;2.63;;;1.40;;
78610;SDS011;67932;50.474;4.436;2023-07-20T11:01:58;3.08;;;1.35;;
78610;SDS011;67932;50.474;4.436;2023-07-20T11:07:08;1.83;;;1.23;;
78610;SDS011;67932;50.474;4.436;2023-07-20T11:09:35;4.32;;;1.40;;
78610;SDS011;67932;50.474;4.436;2023-07-20T11:12:09;2.60;;;1.42;;
78610;SDS011;67932;50.474;4.436;2023-07-20T11:15:10;2.80;;;1.27;;
78610;SDS011;67932;50.474;4.436;2023-07-20T11:17:30;3.28;;;1.27;;
78610;SDS011;67932;50.474;4.436;2023-07-20T11:19:58;3.15;;;1.40;;
78610;SDS011;67932;50.474;4.436;2023-07-20T11:22:26;1.75;;;1.20;;
78610;SDS011;67932;50.474;4.436;2023-07-20T11:24:56;3.33;;;1.20;;
78610;SDS011;67932;50.474;4.436;2023-07-20T11:27:23;2.22;;;1.23;;
78610;SDS011;67932;50.474;4.436;2023-07-20T11:29:49;2.65;;;1.50;;
78610;SDS011;67932;50.474;4.436;2023-07-20T11:32:22;1.75;;;0.90;;
78610;SDS011;67932;50.474;4.436;2023-07-20T11:34:49;3.00;;;1.48;;
78610;SDS011;67932;50.474;4.436;2023-07-20T11:37:16;1.98;;;1.23;;
78610;SDS011;67932;50.474;4.436;2023-07-20T11:39:46;1.50;;;1.20;;
78610;SDS011;67932;50.474;4.436;2023-07-20T11:42:13;2.17;;;1.20;;
78610;SDS011;67932;50.474;4.436;2023-07-20T11:44:40;2.15;;;1.30;;
78610;SDS011;67932;50.474;4.436;2023-07-20T11:49:34;2.22;;;1.10;;
78610;SDS011;67932;50.474;4.436;2023-07-20T11:52:02;3.22;;;1.30;;
78610;SDS011;67932;50.474;4.436;2023-07-20T11:54:31;2.95;;;1.25;;
78610;SDS011;67932;50.474;4.436;2023-07-20T11:57:02;3.88;;;1.35;;
78610;SDS011;67932;50.474;4.436;2023-07-20T11:59:30;3.38;;;1.20;;
78610;SDS011;67932;50.474;4.436;2023-07-20T12:01:57;1.85;;;1.15;;
78610;SDS011;67932;50.474;4.436;2023-07-20T12:04:28;1.63;;;0.93;;
78610;SDS011;67932;50.474;4.436;2023-07-20T12:06:56;1.50;;;1.00;;
78610;SDS011;67932;50.474;4.436;2023-07-20T12:09:22;2.50;;;1.15;;
78610;SDS011;67932;50.474;4.436;2023-07-20T12:11:49;1.48;;;1.15;;
78610;SDS011;67932;50.474;4.436;2023-07-20T12:14:15;1.33;;;1.02;;
78610;SDS011;67932;50.474;4.436;2023-07-20T12:16:42;2.88;;;1.20;;
78610;SDS011;67932;50.474;4.436;2023-07-20T12:19:10;1.45;;;1.13;;
78610;SDS011;67932;50.474;4.436;2023-07-20T12:21:37;1.70;;;1.10;;
78610;SDS011;67932;50.474;4.436;2023-07-20T12:24:06;2.20;;;1.27;;
78610;SDS011;67932;50.474;4.436;2023-07-20T12:26:34;3.92;;;1.60;;
78610;SDS011;67932;50.474;4.436;2023-07-20T12:29:00;2.25;;;1.13;;
78610;SDS011;67932;50.474;4.436;2023-07-20T12:31:29;2.45;;;1.33;;
78610;SDS011;67932;50.474;4.436;2023-07-20T12:33:56;4.90;;;1.58;;
78610;SDS011;67932;50.474;4.436;2023-07-20T12:36:23;3.47;;;1.67;;
78610;SDS011;67932;50.474;4.436;2023-07-20T12:38:49;2.50;;;1.38;;
78610;SDS011;67932;50.474;4.436;2023-07-20T12:41:15;2.75;;;1.23;;
78610;SDS011;67932;50.474;4.436;2023-07-20T12:43:42;2.95;;;1.45;;
78610;SDS011;67932;50.474;4.436;2023-07-20T12:46:10;2.17;;;1.30;;
78610;SDS011;67932;50.474;4.436;2023-07-20T12:48:38;3.08;;;1.50;;
78610;SDS011;67932;50.474;4.436;2023-07-20T12:51:07;3.72;;;1.25;;
78610;SDS011;67932;50.474;4.436;2023-07-20T12:53:34;2.85;;;1.40;;
78610;SDS011;67932;50.474;4.436;2023-07-20T12:56:01;2.05;;;1.60;;
78610;SDS011;67932;50.474;4.436;2023-07-20T12:58:27;4.32;;;1.52;;
78610;SDS011;67932;50.474;4.436;2023-07-20T13:00:53;2.90;;;1.73;;
78610;SDS011;67932;50.474;4.436;2023-07-20T13:03:20;3.53;;;2.08;;
78610;SDS011;67932;50.474;4.436;2023-07-20T13:05:46;4.18;;;1.80;;
78610;SDS011;67932;50.474;4.436;2023-07-20T13:08:14;3.03;;;1.90;;
78610;SDS011;67932;50.474;4.436;2023-07-20T13:10:40;3.85;;;2.03;;
78610;SDS011;67932;50.474;4.436;2023-07-20T13:13:07;4.00;;;2.35;;
78610;SDS011;67932;50.474;4.436;2023-07-20T13:15:40;5.03;;;1.88;;
78610;SDS011;67932;50.474;4.436;2023-07-20T13:18:08;4.35;;;2.03;;
78610;SDS011;67932;50.474;4.436;2023-07-20T13:20:35;4.78;;;2.03;;
78610;SDS011;67932;50.474;4.436;2023-07-20T13:23:01;3.05;;;1.90;;
78610;SDS011;67932;50.474;4.436;2023-07-20T13:25:27;4.13;;;2.30;;
78610;SDS011;67932;50.474;4.436;2023-07-20T13:27:53;3.85;;;2.03;;
78610;SDS011;67932;50.474;4.436;2023-07-20T13:30:20;3.85;;;1.85;;
78610;SDS011;67932;50.474;4.436;2023-07-20T13:32:46;5.85;;;1.40;;
78610;SDS011;67932;50.474;4.436;2023-07-20T13:35:12;2.67;;;1.40;;
78610;SDS011;67932;50.474;4.436;2023-07-20T13:37:39;2.45;;;1.23;;
78610;SDS011;67932;50.474;4.436;2023-07-20T13:40:06;3.28;;;1.30;;
78610;SDS011;67932;50.474;4.436;2023-07-20T13:42:38;4.38;;;1.70;;
78610;SDS011;67932;50.474;4.436;2023-07-20T13:45:05;1.40;;;1.15;;
78610;SDS011;67932;50.474;4.436;2023-07-20T13:47:32;2.60;;;1.42;;
78610;SDS011;67932;50.474;4.436;2023-07-20T13:49:58;3.45;;;1.60;;
78610;SDS011;67932;50.474;4.436;2023-07-20T13:52:26;2.10;;;1.42;;
78610;SDS011;67932;50.474;4.436;2023-07-20T13:54:52;3.08;;;1.50;;
78610;SDS011;67932;50.474;4.436;2023-07-20T13:57:18;2.78;;;1.17;;
78610;SDS011;67932;50.474;4.436;2023-07-20T13:59:44;2.35;;;1.45;;
78610;SDS011;67932;50.474;4.436;2023-07-20T14:02:11;2.88;;;1.45;;
78610;SDS011;67932;50.474;4.436;2023-07-20T14:04:39;2.90;;;1.40;;
78610;SDS011;67932;50.474;4.436;2023-07-20T14:07:06;2.03;;;1.13;;
78610;SDS011;67932;50.474;4.436;2023-07-20T14:09:32;1.75;;;1.23;;
78610;SDS011;67932;50.474;4.436;2023-07-20T14:11:58;2.97;;;1.20;;
78610;SDS011;67932;50.474;4.436;2023-07-20T14:14:24;2.17;;;1.20;;
78610;SDS011;67932;50.474;4.436;2023-07-20T14:16:51;3.42;;;1.70;;
78610;SDS011;67932;50.474;4.436;2023-07-20T14:19:17;1.83;;;1.30;;
78610;SDS011;67932;50.474;4.436;2023-07-20T14:21:43;2.45;;;1.30;;
78610;SDS011;67932;50.474;4.436;2023-07-20T14:24:09;2.22;;;1.13;;
78610;SDS011;67932;50.474;4.436;2023-07-20T14:26:36;1.48;;;0.98;;
78610;SDS011;67932;50.474;4.436;2023-07-20T14:29:02;3.25;;;1.20;;
78610;SDS011;67932;50.474;4.436;2023-07-20T14:31:29;1.85;;;1.17;;
78610;SDS011;67932;50.474;4.436;2023-07-20T14:33:55;2.95;;;1.48;;
78610;SDS011;67932;50.474;4.436;2023-07-20T14:36:21;3.45;;;1.20;;
78610;SDS011;67932;50.474;4.436;2023-07-20T14:38:47;0.85;;;0.85;;
78610;SDS011;67932;50.474;4.436;2023-07-20T14:41:14;4.85;;;1.25;;
78610;SDS011;67932;50.474;4.436;2023-07-20T14:43:40;3.05;;;0.90;;
78610;SDS011;67932;50.474;4.436;2023-07-20T14:46:06;2.92;;;1.25;;
78610;SDS011;67932;50.474;4.436;2023-07-20T14:48:33;1.20;;;0.90;;
78610;SDS011;67932;50.474;4.436;2023-07-20T14:50:59;2.38;;;1.25;;
78610;SDS011;67932;50.474;4.436;2023-07-20T14:53:25;1.23;;;0.82;;
78610;SDS011;67932;50.474;4.436;2023-07-20T14:55:57;2.13;;;1.27;;
78610;SDS011;67932;50.474;4.436;2023-07-20T14:58:25;3.88;;;1.20;;
78610;SDS011;67932;50.474;4.436;2023-07-20T15:00:51;1.50;;;0.98;;
78610;SDS011;67932;50.474;4.436;2023-07-20T15:03:17;1.92;;;0.93;;
78610;SDS011;67932;50.474;4.436;2023-07-20T15:05:44;1.48;;;0.90;;
78610;SDS011;67932;50.474;4.436;2023-07-20T15:08:10;1.10;;;0.80;;
78610;SDS011;67932;50.474;4.436;2023-07-20T15:10:36;1.75;;;0.90;;
78610;SDS011;67932;50.474;4.436;2023-07-20T15:13:03;1.23;;;0.80;;